METAR AND TAF INFORMATION
METAR FOR EGVN
ADDS - METARS form results

(2018 UTC 21 August 2019)
Data provider http://aviationweather.gov/metar/data/
 
METAR text: EGVN 211950Z 22003KT CAVOK 17/10 Q1024 NOSIG RMK BLU BLU
Conditions at: EGVN (BRIZE NORTON RAF, GB) observed 1950 UTC 21 August 2019
Temperature: 17.0°C (63°F)
Dewpoint: 10.0°C (50°F) [RH = 63%]
Pressure (altimeter): 30.24 inches Hg (1024.0 mb)
Winds: from the SW (220 degrees) at 3 MPH (3 knots; 1.5 m/s)
Visibility: 6 or more miles (10+ km)
Ceiling: ceiling and visibility are OK
Clouds: unknown
Weather: no significant weather observed at this time

METAR text: EGVN 211920Z 23003KT CAVOK 18/10 Q1024 NOSIG RMK BLU BLU
Conditions at: EGVN (BRIZE NORTON RAF, GB) observed 1920 UTC 21 August 2019
Temperature: 18.0°C (64°F)
Dewpoint: 10.0°C (50°F) [RH = 59%]
Pressure (altimeter): 30.24 inches Hg (1024.0 mb)
Winds: from the SW (230 degrees) at 3 MPH (3 knots; 1.5 m/s)
Visibility: 6 or more miles (10+ km)
Ceiling: ceiling and visibility are OK
Clouds: unknown
Weather: no significant weather observed at this time

Forecast for: EGVN (BRIZE NORTON RAF, GB)
Text: TAF EGVN 211919Z 2121/2221 22005KT 9999 FEW030
Forecast period: 2100 UTC 21 August 2019 to 2100 UTC 22 August 2019
Forecast type: FROM: standard forecast or significant change
Winds: from the SW (220 degrees) at 6 MPH (5 knots; 2.6 m/s)
Visibility: 6 or more miles 10+ km)
Ceiling: at least 12,000 feet AGL
Clouds: few clouds at 3000 feet AGL
Weather: no significant weather forecast for this period
Text: PROB30
Forecast period: 0400 to 0700 UTC 22 August 2019
Forecast type: TEMPORARY: The following changes expected for less than half the time period
Visibility: 4 miles (7 km)
Ceiling: at least 12,000 feet AGL
Clouds: scattered clouds at 900 feet AGL
Weather: BR  (mist)
Text: TEMPO 2204/2207 7000 BR SCT009
Forecast period: 0700 to 1000 UTC 22 August 2019
Forecast type: TEMPORARY: The following changes expected for less than half the time period
Visibility: missing
Ceiling: at least 12,000 feet AGL
Clouds: scattered clouds at 2000 feet AGL
Weather: no significant weather forecast for this period

 AIRPORT MAP

 RUNWAY INFORMATION
Runway 08 Runway length 10007 ft Runway width 184 ft
Runway elevation 284 ft Runway displaced threshold 0 ft Runway heading 74
Runway 26 Runway length 10007 ft Runway width 184 ft
Runway elevation 249 ft Runway displaced threshold 0 ft Runway heading 254

 AIRPORT FREQUENCIES
Type APP Name APP Frequency 127.25 MHZ
Type APP Name Frequency 297.8 MHZ
Type APP Name Frequency 362.3 MHZ
Type ATIS Name ATIS Frequency 259 MHZ
Type CAC Name CAC Frequency 124.275 MHZ
Type GND Name GND Frequency 121.725 MHZ
Type GRN Name Frequency 240.55 MHZ
Type MISC Name ZONE Frequency 119 MHZ
Type OPS Name OPS Frequency 130.075 MHZ
Type RDR Name DIR Frequency 133.755 MHZ
Type TWR Name TWR Frequency 123.72 MHZ

 AIRPORT NEAR NAVIGATION AIDS
Type NDB Name Brize Norton Frequency 386 KHZ
Type TACAN Name Brize Norton Frequency 111900 KHZ